Tiempo atmosférico en la estación meteorológica de Xinzo De Limia, Ourense (600 m.)



Fecha
DESCASC
Temp. máxima en grados centígrados (hora)
DESCASC
Temp. mínima en grados centígrados (hora)
DESCASC
Temp. media en grados centígrados
DESCASC
Racha de viento máxima en m/sg (hora)
DESCASC
Velocidad máxima media en intervalos de 10 minutos(hora)
DESCASC
Precipitaciones diarias en mm
DESCASC
Precipitaciones de 00:00 a 06:00 en mm
DESCASC
Precipitaciones de 06:00 a 12:00 en mm
DESCASC
Precipitaciones de 12:00 a 18:00 en mm
DESCASC
Precipitaciones de 18:00 a 24:00 en mm
DESCASC
22-04-2019 18.1 (14:50) 1.6 (07:40) 9.9 10.56 (17:10) 4.72 (16:10) 2.3 0 0 0 2.3
21-04-2019 20.8 (16:00) 0 (08:30) 10.4 10.28 (18:20) 6.11 (18:20) 0 0 0 0 0
20-04-2019 24 (17:40) 3.7 (07:40) 13.9 11.11 (18:20) 7.5 (18:20) 0 0 0 0 0
19-04-2019 18.3 (17:10) 6.7 (06:50) 12.5 10.56 (15:30) 6.11 (17:10) 2.5 2 0.5 0 0
18-04-2019 17 (17:50) 6.4 (00:00) 11.7 8.06 (18:20) 3.89 (23:00) 0.4 0.3 0 0 0.1
17-04-2019 12.3 (00:10) 7.7 (00:00) 10 11.11 (12:30) 6.39 (12:30) 10 0 0 5 5
16-04-2019 17.4 (18:10) -0.8 (-00:0) 8.3 11.11 (14:10) 6.39 (12:10) 0 0 0 0 0
15-04-2019 14 (03:10) 5.6 (00:00) 9.8 13.61 (11:10) 5.56 (11:10) 2.7 0 2 0.7 0
14-04-2019 17.1 (20:10) 10.5 (00:00) 13.8 5 (18:20) 3.06 (12:00) 0.3 0 0.1 0.1 0.1
13-04-2019 19.1 (13:50) 5.4 (00:00) 12.3 8.89 (16:40) 5 (16:20) 0.9 0 0 0.2 0.7
12-04-2019 18.2 (18:00) -1.9 (-00:0) 8.2 8.61 (11:00) 5 (11:00) 0 0 0 0 0
11-04-2019 14.7 (18:10) 0.2 (00:00) 7.4 6.94 (18:30) 4.72 (18:30) 0 0 0 0 0
10-04-2019 11.5 (15:50) 4.2 (00:00) 7.8 11.11 (16:20) 6.11 (16:50) 8.7 6.9 0.7 0.3 0.8
09-04-2019 10.1 (16:10) 2.8 (00:00) 6.5 12.78 (16:30) 5.83 (13:40) 27.7 12.8 5.3 2.8 6.8
08-04-2019 12.1 (15:30) 2.2 (00:00) 7.2 10 (19:30) 5 (14:40) 5.9 1.9 0 0 4
07-04-2019 7.5 (13:50) -0.2 (00:00) 3.6 9.17 (18:50) 5.56 (20:20) 10.1 1.4 0.1 3 5.6
06-04-2019 7.5 (16:50) -1.2 (-00:0) 3.1 13.06 (14:00) 6.67 (14:00) 31.2 9.5 12.6 5 4.1
05-04-2019 7.4 (12:50) -0.5 (-00:0) 3.5 10.56 (15:00) 5.83 (15:00) 3.6 3.1 0 0.4 0.1
04-04-2019 7.8 (14:10) -0.7 (-00:0) 3.6 8.06 (16:00) 4.72 (13:00) 8.1 0 0 0.2 7.9
03-04-2019 8 (16:10) 1 (00:00) 4.5 13.33 (14:10) 8.61 (17:20) 0.6 0 0 0.6 0
02-04-2019 15.5 (17:50) -3.2 (-00:0) 6.1 8.89 (18:10) 5 (19:10) 0 0 0 0 0
01-04-2019 19.8 (15:20) -0.2 (00:00) 9.8 8.61 (15:30) 5.83 (15:30) 0.7 0 0 0.5 0.2
31-03-2019 19.8 (18:40) -1.1 (-00:0) 9.3 9.17 (14:20) 5.83 (14:20) 0 0 0 0 0
30-03-2019 18.6 (12:20) -1.8 (-00:0) 8.4 7.5 (20:00) 4.44 (19:50) 0 0 0 0 0
29-03-2019 21.1 (16:00) -2.1 (-00:0) 9.5 8.06 (11:10) 4.72 (10:50) 0 0 0 0 0
28-03-2019 21.6 (17:10) -2.5 (-00:0) 9.6 6.67 (14:00) 3.89 (10:20) 0 0 0 0 0
27-03-2019 21.6 (17:20) 1.2 (00:00) 11.4 10.28 (11:30) 5.28 (11:20) 0 0 0 0 0
26-03-2019 20.3 (16:30) -1.9 (-00:0) 9.2 11.94 (14:40) 7.22 (14:40) 0 0 0 0 0
25-03-2019 20.3 (15:30) -2.1 (-00:0) 9.1 6.94 (15:30) 4.44 (16:00) 0 0 0 0 0

Gráficas

Temp. máximas Temp. mínimas Temp. medias Precipitaciones Rachas de viento máximas Velocidades máximas media en intervalos de 10 minutos

Datos horarios

Fecha y hora oficial Temperatura (ºC) Velocidad del viento (km/h) Dirección del viento Racha (km/h) Dirección de racha Precipitación (mm) Presión (hPa) Tendencia (hPa) Humedad (%)
2019-04-23 23:00:00 2.5 0 Calma 21 Oeste 0 -- -- 85
2019-04-23 22:00:00 2.9 4 Sudoeste 20 Sudoeste 0 -- -- 81
2019-04-23 21:00:00 4.5 13 Sudoeste 29 Sudoeste 0 -- -- 74
2019-04-23 20:00:00 7.2 12 Sudoeste 31 Oeste 0 -- -- 68
2019-04-23 19:00:00 6.9 13 Oeste 28 Noroeste 0.8 -- -- 71
2019-04-23 18:00:00 7.3 6 Sudoeste 31 Sudoeste 0 -- -- 68
2019-04-23 17:00:00 6.8 10 Sudoeste 31 Oeste 0.1 -- -- 70
2019-04-23 16:00:00 8.2 11 Oeste 45 Oeste 0 -- -- 70
2019-04-23 15:00:00 7.3 12 Sudoeste 24 Sudoeste 0 -- -- 78
2019-04-23 14:00:00 5.7 6 Noroeste 11 Noroeste 0 -- -- 85
2019-04-23 13:00:00 4.2 9 Noroeste 27 Oeste 0.8 -- -- 86
2019-04-23 12:00:00 5.9 10 Oeste 27 Oeste 0 -- -- 84
2019-04-23 11:00:00 5.4 9 Oeste 20 Oeste 0 -- -- 84
2019-04-23 10:00:00 5.4 2 Sudoeste 9 Sudoeste 0 -- -- 84
2019-04-23 09:00:00 3.8 6 Sur 15 Norte 0 -- -- 90
2019-04-23 08:00:00 2.4 2 Sur 10 Sur 0 -- -- 91
2019-04-23 07:00:00 2.6 3 Oeste 9 Oeste 0 -- -- 90
2019-04-23 06:00:00 3.3 0 Calma 12 Sudoeste 0.2 -- -- 90
2019-04-23 05:00:00 3.7 6 Sudoeste 18 Sudoeste 0.1 -- -- 89
2019-04-23 04:00:00 4.1 3 Sudoeste 15 Sur 0 -- -- 89
2019-04-23 03:00:00 4.6 8 Sudoeste 17 Sudoeste 0.3 -- -- 89
2019-04-23 02:00:00 4.8 3 Este 18 Oeste 0 -- -- 88
2019-04-23 01:00:00 5.2 4 Oeste 26 Oeste 0 -- -- 88
2019-04-23 00:00:00 6 12 Sudoeste 35 Sudoeste 1.7 -- -- 85
2019-04-22 23:00:00 8.3 11 Sudeste 21 Sur 0.2 -- -- 80
2019-04-22 22:00:00 8.6 9 Sudeste 25 Sudeste 0.1 -- -- 71
2019-04-22 21:00:00 9.6 12 Sur 24 Sudoeste 0.3 -- -- 64
2019-04-22 20:00:00 11.6 10 Sur 38 Sur 0 -- -- 55
2019-04-22 19:00:00 12.7 14 Sudoeste 33 Sudoeste 0 -- -- 51
2019-04-22 18:00:00 14.1 13 Sudoeste 38 Oeste 0 -- -- 54
2019-04-22 17:00:00 15.2 12 Sudoeste 33 Oeste 0 -- -- 50
2019-04-22 16:00:00 17.6 12 Oeste 33 Oeste 0 -- -- 47
2019-04-22 15:00:00 17.7 9 Sudoeste 23 Sudoeste 0 -- -- 44
2019-04-22 14:00:00 15.9 4 Sudoeste 20 Sudeste 0 -- -- 51
2019-04-22 13:00:00 16.1 8 Sur 18 Sur 0 -- -- 55
2019-04-22 12:00:00 15.3 6 Sudeste 21 Sudeste 0 -- -- 57
2019-04-22 11:00:00 13.5 13 Sudeste 22 Sudeste 0 -- -- 64
2019-04-22 10:00:00 10.4 13 Sudeste 23 Sudeste 0 -- -- 93
2019-04-22 09:00:00 4 2 Oeste 6 Sudoeste 0 -- -- 94
2019-04-22 08:00:00 1.7 3 Oeste 7 Oeste 0 -- -- 93
2019-04-22 07:00:00 2.2 3 Sudoeste 8 Oeste 0 -- -- 93
2019-04-22 06:00:00 3.3 3 Oeste 9 Oeste 0 -- -- 92
2019-04-22 05:00:00 3.2 0 Calma 9 Oeste 0 -- -- 91
2019-04-22 04:00:00 4.4 4 Sur 10 Oeste 0 -- -- 90
2019-04-22 03:00:00 4.9 3 Sur 8 Oeste 0 -- -- 89
2019-04-22 02:00:00 5.7 3 Sudoeste 6 Oeste 0 -- -- 85
2019-04-22 01:00:00 7.5 0 Calma 10 Sudeste 0 -- -- 79
2019-04-22 00:00:00 9.5 5 Sudeste 9 Sudeste 0 -- -- 73
2019-04-21 23:00:00 10.3 0 Calma 11 Nordeste 0 -- -- 66
2019-04-21 22:00:00 12.1 8 Norte 24 Nordeste 0 -- -- 56
2019-04-21 21:00:00 15.3 9 Norte 24 Norte 0 -- -- 45
2019-04-21 20:00:00 17.8 15 Norte 32 Norte 0 -- -- 39
2019-04-21 19:00:00 18.9 19 Norte 37 Norte 0 -- -- 36
2019-04-21 18:00:00 20 17 Norte 31 Norte 0 -- -- 34
2019-04-21 17:00:00 20.2 21 Norte 35 Norte 0 -- -- 33
2019-04-21 16:00:00 19.7 20 Norte 31 Norte 0 -- -- 37
2019-04-21 15:00:00 19.8 18 Norte 36 Norte 0 -- -- 36
2019-04-21 14:00:00 19.7 16 Norte 33 Norte 0 -- -- 36
2019-04-21 13:00:00 18.7 20 Norte 32 Norte 0 -- -- 39
2019-04-21 12:00:00 17 19 Norte 29 Norte 0 -- -- 43
2019-04-21 11:00:00 12.9 2 Norte 6 Norte 0 -- -- 76
2019-04-21 10:00:00 8.4 3 Nordeste 7 Norte 0 -- -- 94
2019-04-21 09:00:00 4 0 Calma 6 Sudoeste 0 -- -- 94
2019-04-21 08:00:00 0.9 0 Calma 5 Sudoeste 0 -- -- 94
2019-04-21 07:00:00 1.7 0 Calma 4 Oeste 0 -- -- 93
2019-04-21 06:00:00 2.6 0 Calma 4 Noroeste 0 -- -- 92
2019-04-21 05:00:00 3.1 0 Calma 6 Sudeste 0 -- -- 90
2019-04-21 04:00:00 4.8 3 Sudoeste 6 Sudoeste 0 -- -- 88
2019-04-21 03:00:00 6.3 4 Sudoeste 6 Sudoeste 0 -- -- 83
2019-04-21 02:00:00 8.1 2 Sur 10 Sudoeste 0 -- -- 76
2019-04-21 01:00:00 10 4 Oeste 9 Oeste 0 -- -- 67
2019-04-21 00:00:00 11.1 4 Noroeste 13 Norte 0 -- -- 57
2019-04-20 23:00:00 14.3 6 Oeste 26 Norte 0 -- -- 46
2019-04-20 22:00:00 15.2 15 Norte 32 Norte 0 -- -- 41
2019-04-20 21:00:00 17.6 18 Norte 39 Norte 0 -- -- 37
2019-04-20 20:00:00 20.2 24 Norte 39 Norte 0 -- -- 33
2019-04-20 19:00:00 21.9 24 Norte 40 Norte 0 -- -- 32
2019-04-20 18:00:00 23.4 24 Norte 36 Norte 0 -- -- 35
2019-04-20 17:00:00 23.3 10 Noroeste 26 Oeste 0 -- -- 39
2019-04-20 16:00:00 22.7 8 Norte 18 Noroeste 0 -- -- 39
2019-04-20 15:00:00 22.4 2 Noroeste 12 Noroeste 0 -- -- 41
2019-04-20 14:00:00 20.4 7 Norte 15 Nordeste 0 -- -- 47
2019-04-20 13:00:00 18.5 8 Nordeste 15 Norte 0 -- -- 52
2019-04-20 12:00:00 17 8 Norte 14 Norte 0 -- -- 54
2019-04-20 11:00:00 14.7 3 Norte 10 Sur 0 -- -- 69
2019-04-20 10:00:00 10.2 3 Sur 8 Sur 0 -- -- 82
2019-04-20 09:00:00 5.9 0 Calma -- -- -- -- -- 89
2019-04-20 08:00:00 4 4 Sudoeste 11 Sudoeste 0 -- -- 87
2019-04-20 07:00:00 4.6 8 Sudoeste 12 Sudoeste 0 -- -- 85
2019-04-20 06:00:00 5.9 4 Nordeste 11 Nordeste 0 -- -- 79
2019-04-20 05:00:00 6.8 5 Nordeste 20 Este 0 -- -- 79
2019-04-20 04:00:00 6.7 9 Nordeste 14 Nordeste 0 -- -- 81
2019-04-20 03:00:00 7 7 Nordeste 17 Nordeste 0 -- -- 82
2019-04-20 02:00:00 7.6 5 Nordeste 10 Nordeste 0 -- -- 81
2019-04-20 01:00:00 9.5 6 Nordeste 17 Nordeste 0 -- -- 79
2019-04-20 00:00:00 9.3 13 Nordeste 15 Nordeste 0 -- -- 76
2019-04-19 23:00:00 10 9 Nordeste 13 Norte 0 -- -- 73
2019-04-19 22:00:00 11.3 8 Norte 12 Sudeste 0 -- -- 69
2019-04-19 21:00:00 14.2 8 Sudeste 14 Este 0 -- -- 57
2019-04-19 20:00:00 16 9 Nordeste 24 Nordeste 0 -- -- 52
2019-04-19 19:00:00 15.1 15 Nordeste 27 Nordeste 0 -- -- 53
2019-04-19 18:00:00 16.6 15 Este 34 Este 0 -- -- 45
2019-04-19 17:00:00 18.2 15 Este 33 Este 0 -- -- 44
2019-04-19 16:00:00 16.1 18 Este 38 Este 0 -- -- 45
2019-04-19 15:00:00 16 13 Este 28 Sudeste 0 -- -- 52
2019-04-19 14:00:00 14.6 16 Sudeste 33 Sudeste 0 -- -- 57
2019-04-19 13:00:00 13.4 14 Sudeste 27 Sudeste 0 -- -- 70
2019-04-19 12:00:00 10 6 Sur 15 Nordeste 0 -- -- 86
2019-04-19 11:00:00 10.7 13 Nordeste 18 Nordeste 0 -- -- 87
2019-04-19 10:00:00 9.1 15 Nordeste 26 Nordeste 0 -- -- 93
2019-04-19 09:00:00 7.6 6 Norte 14 Norte 0 -- -- 94
2019-04-19 08:00:00 6.8 3 Noroeste 10 Norte 0.1 -- -- 94
2019-04-19 07:00:00 6.8 4 Noroeste 12 Norte 0.4 -- -- 94
2019-04-19 06:00:00 6.9 4 Noroeste 11 Noroeste 0.7 -- -- 93
2019-04-19 05:00:00 7 5 Noroeste 15 Noroeste 1.3 -- -- 92
2019-04-19 04:00:00 7.4 8 Norte 14 Noroeste 0 -- -- 90
2019-04-19 03:00:00 7.6 3 Norte 14 Norte 0 -- -- 87
2019-04-19 02:00:00 8 11 Norte 20 Noroeste 0 -- -- 87
2019-04-19 01:00:00 8.1 10 Noroeste 15 Noroeste 0 -- -- 84
2019-04-19 00:00:00 8.8 8 Noroeste 19 Noroeste 0 -- -- 81
2019-04-18 23:00:00 9.7 14 Noroeste 23 Noroeste 0 -- -- 79
2019-04-18 22:00:00 10.7 6 Noroeste 12 Noroeste 0 -- -- 72
2019-04-18 21:00:00 11.6 5 Noroeste 9 Este 0 -- -- 69
2019-04-18 20:00:00 12.3 8 Este 15 Sudeste 0.1 -- -- 63
2019-04-18 19:00:00 14.8 10 Este 36 Norte 0 -- -- 53
2019-04-18 18:00:00 16.7 9 Noroeste 17 Sudoeste 0 -- -- 46
2019-04-18 17:00:00 15.8 9 Sudoeste 22 Sur 0 -- -- 49
2019-04-18 16:00:00 15.9 9 Sudeste 20 Sudeste 0 -- -- 45
2019-04-18 15:00:00 16 9 Sudeste 22 Sudeste 0 -- -- 49
2019-04-18 14:00:00 14.8 13 Sudeste 24 Sudeste 0 -- -- 55
2019-04-18 13:00:00 12.6 9 Sudeste 21 Este 0 -- -- 63
2019-04-18 12:00:00 12.4 12 Sudeste 19 Sudeste 0 -- -- 68
2019-04-18 11:00:00 11.7 9 Sudeste 18 Sudeste 0 -- -- 84
2019-04-18 10:00:00 8.4 6 Sudeste 17 Sudeste 0 -- -- 93
2019-04-18 09:00:00 6.8 9 Sudeste 21 Sudeste 0 -- -- 93
2019-04-18 08:00:00 6.7 11 Sudeste 24 Sudeste 0 -- -- 93
2019-04-18 07:00:00 6.5 10 Sudeste 16 Sudeste 0 -- -- 93
2019-04-18 06:00:00 6.7 9 Sudeste 14 Sudeste 0 -- -- 93
2019-04-18 05:00:00 7 9 Sudeste 16 Sudeste 0 -- -- 93
2019-04-18 04:00:00 7.3 9 Sudeste 19 Sudeste 0 -- -- 93
2019-04-18 03:00:00 7.5 12 Sudeste 22 Sudeste 0.1 -- -- 93
2019-04-18 02:00:00 7.6 12 Sudeste 21 Sudeste 0 -- -- 93
2019-04-18 01:00:00 7.6 10 Sudeste 17 Sudeste 0.2 -- -- 93
2019-04-18 00:00:00 7.7 8 Sudeste 11 Sudeste 0 -- -- 93
2019-04-17 23:00:00 8 6 Sudeste 12 Este 0.4 -- -- 92
2019-04-17 22:00:00 8.3 0 Calma 7 Oeste 0.5 -- -- 92
2019-04-17 21:00:00 8.7 2 Sudoeste 11 Oeste 1.2 -- -- 91
2019-04-17 20:00:00 9.1 2 Sur 14 Este 1.8 -- -- 90
2019-04-17 19:00:00 9.5 9 Este 13 Este 1.1 -- -- 88
2019-04-17 18:00:00 9.9 5 Sur 19 Sur 2.4 -- -- 88
2019-04-17 17:00:00 10.4 10 Sur 26 Sur 1.9 -- -- 87
2019-04-17 16:00:00 11.2 17 Sur 30 Sudeste 0.1 -- -- 81
2019-04-17 15:00:00 11.9 15 Sur 33 Sudeste 0 -- -- 74
2019-04-17 14:00:00 11.2 19 Sudeste 39 Sur 0.5 -- -- 75
2019-04-17 13:00:00 11.8 16 Sudeste 40 Sudeste 0.1 -- -- 67
2019-04-17 12:00:00 11.3 19 Sudeste 37 Sudeste 0 -- -- 62
2019-04-17 11:00:00 11.5 19 Sudeste 37 Sur 0 -- -- 60
2019-04-17 10:00:00 11.3 15 Sudeste 27 Sudeste 0 -- -- 61
2019-04-17 09:00:00 10.4 15 Sudeste 28 Sudeste 0 -- -- 61
2019-04-17 08:00:00 10.3 5 Sudeste 26 Sur 0 -- -- 59
2019-04-17 07:00:00 10.2 12 Sudeste 27 Sur 0 -- -- 61
2019-04-17 06:00:00 10.4 15 Sudeste 33 Sudeste 0 -- -- 60
2019-04-17 05:00:00 10.9 15 Sudeste 27 Sudeste 0 -- -- 60
2019-04-17 04:00:00 11.1 14 Sudeste 28 Sudeste 0 -- -- 59
2019-04-17 03:00:00 10 0 Calma 15 Nordeste 0 -- -- 62
2019-04-17 02:00:00 10.5 7 Nordeste 22 Sudeste 0 -- -- 56
2019-04-17 01:00:00 10.8 5 Sur 21 Este 0 -- -- 52
2019-04-17 00:00:00 12.1 10 Sudeste 21 Sudeste 0 -- -- 47
2019-04-16 23:00:00 12.4 11 Sudeste 19 Sudeste 0 -- -- 47
2019-04-16 22:00:00 13.8 12 Sudeste 23 Sudeste 0 -- -- 44
2019-04-16 21:00:00 14.4 7 Sudeste 28 Sudeste 0 -- -- 44
2019-04-16 20:00:00 16.7 12 Sudeste 40 Sudeste 0 -- -- 41
2019-04-16 19:00:00 17 16 Sudeste 33 Sudeste 0 -- -- 41
2019-04-16 18:00:00 17.1 17 Sudeste 37 Sudeste 0 -- -- 39
2019-04-16 17:00:00 16.7 19 Sudeste 33 Sudeste 0 -- -- 40
2019-04-16 16:00:00 15.8 17 Sudeste 33 Sudeste 0 -- -- 42
2019-04-16 15:00:00 15.1 19 Sudeste 40 Sudeste 0 -- -- 44
2019-04-16 14:00:00 14.5 16 Sudeste 37 Sudeste 0 -- -- 50
2019-04-16 13:00:00 13 22 Sudeste 37 Sudeste 0 -- -- 56
2019-04-16 12:00:00 11 19 Sudeste 36 Sudeste 0 -- -- 66
2019-04-16 11:00:00 8.3 17 Sudeste 32 Sudeste 0 -- -- 84
2019-04-16 10:00:00 6.9 14 Sudeste 27 Sudeste 0 -- -- 94
2019-04-16 09:00:00 1.7 4 Sudoeste 10 Sudeste 0 -- -- 94
2019-04-16 08:00:00 -0.6 2 Noroeste 9 Sudeste 0 -- -- 94
2019-04-16 07:00:00 -0.4 3 Sur 6 Sur 0 -- -- 94
2019-04-16 06:00:00 -0.3 3 Sur 6 Sudoeste 0 -- -- 93
2019-04-16 05:00:00 0.2 2 Noroeste 8 Oeste 0 -- -- 92
2019-04-16 04:00:00 2 3 Sur 10 Sudeste 0 -- -- 92
2019-04-16 03:00:00 2.4 3 Sudeste 6 Sudeste 0 -- -- 91
2019-04-16 02:00:00 4.2 3 Sudoeste 13 Oeste 0 -- -- 90
2019-04-16 01:00:00 5 3 Sur 14 Oeste 0 -- -- 88
2019-04-16 00:00:00 5.6 5 Sudoeste 14 Sudoeste 0 -- -- 84
2019-04-15 23:00:00 6.3 4 Sudoeste 15 Oeste 0 -- -- 79
2019-04-15 22:00:00 7 5 Noroeste 9 Norte 0 -- -- 73
2019-04-15 21:00:00 9.1 4 Noroeste 24 Oeste 0 -- -- 66
2019-04-15 20:00:00 11.8 12 Oeste 27 Noroeste 0 -- -- 60
2019-04-15 19:00:00 10.9 14 Noroeste 32 Noroeste 0 -- -- 62
2019-04-15 18:00:00 10.7 18 Oeste 29 Oeste 0.4 -- -- 70
2019-04-15 17:00:00 13.4 15 Oeste 32 Oeste 0 -- -- 69
2019-04-15 16:00:00 12.6 14 Sudoeste 33 Sudoeste 0 -- -- 75
2019-04-15 15:00:00 11.7 15 Sudoeste 36 Oeste 0.1 -- -- 85
2019-04-15 14:00:00 8.9 4 Sudoeste 22 Oeste 0.2 -- -- 89
2019-04-15 13:00:00 9.3 11 Oeste 26 Oeste 0 -- -- 87
2019-04-15 12:00:00 9.1 10 Oeste 49 Sudoeste 0 -- -- 87
2019-04-15 11:00:00 11.7 7 Sur 21 Sur 0 -- -- 80
2019-04-15 10:00:00 11.4 9 Sudeste 17 Sudeste 0 -- -- 90
2019-04-15 09:00:00 11.3 8 Norte 18 Oeste 0.1 -- -- 92
2019-04-15 08:00:00 12.1 6 Oeste 21 Sudoeste 1.9 -- -- 91
2019-04-15 07:00:00 13 12 Sudeste 23 Sudeste 0 -- -- 88
2019-04-15 06:00:00 12.7 8 Este 18 Sudeste 0 -- -- 87
2019-04-15 05:00:00 12.9 11 Sudeste 21 Sudeste 0 -- -- 86
2019-04-15 04:00:00 13.4 10 Sudeste 22 Sur 0 -- -- 84
2019-04-15 03:00:00 13.9 12 Sur 23 Sur 0 -- -- 84
2019-04-15 02:00:00 13 8 Sudeste 16 Este 0 -- -- 84
2019-04-15 01:00:00 13.4 6 Sudeste 15 Sudeste 0 -- -- 82
2019-04-15 00:00:00 13.7 8 Sudeste 14 Sudeste 0 -- -- 79
2019-04-14 23:00:00 14.4 9 Sudeste 17 Sudeste 0 -- -- 78
2019-04-14 22:00:00 14.2 5 Oeste 12 Oeste 0 -- -- 80
2019-04-14 21:00:00 15.7 0 Calma 16 Sur 0 -- -- 73
2019-04-14 20:00:00 17 2 Sudeste 10 Oeste 0 -- -- 70
2019-04-14 19:00:00 16.5 4 Oeste 18 Oeste 0.1 -- -- 73
2019-04-14 18:00:00 16.9 4 Sudoeste 11 Oeste 0 -- -- 73
2019-04-14 17:00:00 15.7 6 Sudeste 12 Sudeste 0 -- -- 79
2019-04-14 16:00:00 16.8 6 Sudeste 12 Este 0 -- -- 75
2019-04-14 15:00:00 15.4 4 Sur 14 Sudoeste 0.1 -- -- 80
2019-04-14 14:00:00 15.2 5 Sudoeste 12 Este 0 -- -- 78
2019-04-14 13:00:00 15.6 8 Sudeste 16 Sudeste 0 -- -- 80
2019-04-14 12:00:00 14.4 11 Sudeste 17 Sudeste 0.1 -- -- 89
2019-04-14 11:00:00 12.8 7 Sudeste 12 Sudeste 0 -- -- 92
2019-04-14 10:00:00 11.7 5 Sudeste 13 Sudeste 0 -- -- 92
2019-04-14 09:00:00 11 8 Sudeste 13 Sudeste 0 -- -- 92
2019-04-14 08:00:00 10.7 5 Sudeste 9 Sudeste 0 -- -- 92
2019-04-14 07:00:00 10.6 3 Sur 10 Sudeste 0 -- -- 92
2019-04-14 06:00:00 10.7 2 Sur 12 Sudeste 0 -- -- 92
2019-04-14 05:00:00 10.6 8 Sudeste 12 Sudeste 0 -- -- 92
2019-04-14 04:00:00 10.7 0 Calma 6 Oeste 0 -- -- 92
2019-04-14 03:00:00 10.6 0 Calma 4 Este 0 -- -- 92
2019-04-14 02:00:00 10.6 4 Sur 11 Oeste 0 -- -- 92
2019-04-14 01:00:00 10.7 5 Sudoeste 12 Sudoeste 0 -- -- 92
2019-04-14 00:00:00 10.8 5 Oeste 14 Oeste 0 -- -- 92
2019-04-13 23:00:00 10.9 3 Oeste 14 Oeste 0 -- -- 91
2019-04-13 22:00:00 11.1 8 Oeste 22 Oeste 0 -- -- 89
2019-04-13 21:00:00 11.5 14 Oeste 24 Oeste 0 -- -- 88
2019-04-13 20:00:00 11.9 2 Nordeste 6 Este 0.2 -- -- 87
2019-04-13 19:00:00 11.8 0 Calma 6 Noroeste 0.5 -- -- 82
2019-04-13 18:00:00 12.6 4 Oeste 30 Oeste 0.2 -- -- 72
2019-04-13 17:00:00 15.5 15 Oeste 32 Oeste 0 -- -- 50
2019-04-13 16:00:00 16.8 16 Oeste 30 Oeste 0 -- -- 41
2019-04-13 15:00:00 18.5 8 Sudoeste 16 Oeste 0 -- -- 37
2019-04-13 14:00:00 18.6 4 Norte 13 Sur 0 -- -- 37
2019-04-13 13:00:00 17.7 0 Calma 11 Oeste 0 -- -- 44
2019-04-13 12:00:00 14.8 3 Sudoeste 9 Oeste 0 -- -- 60
2019-04-13 11:00:00 12.7 3 Sudoeste 10 Sudoeste 0 -- -- 76
2019-04-13 10:00:00 9.1 4 Sudoeste 8 Sudeste 0 -- -- 92
2019-04-13 09:00:00 6.5 5 Sudoeste 8 Sudoeste 0 -- -- 92
2019-04-13 08:00:00 5.5 0 Calma 7 Oeste 0 -- -- 92
2019-04-13 07:00:00 6 2 Sudoeste 8 Sudeste 0 -- -- 91
2019-04-13 06:00:00 6.1 4 Sur 6 Sur 0 -- -- 90
2019-04-13 05:00:00 6.2 2 Oeste 10 Sur 0 -- -- 89
2019-04-13 04:00:00 5.7 0 Calma 2 Sudoeste 0 -- -- 89
2019-04-13 03:00:00 6.2 0 Calma 4 Este 0 -- -- 85
2019-04-13 02:00:00 7.1 3 Sur 5 Sudoeste 0 -- -- 82
2019-04-13 01:00:00 7.5 3 Oeste 9 Sudoeste 0 -- -- 77
2019-04-13 00:00:00 8.5 3 Sudoeste 10 Oeste 0 -- -- 73
2019-04-12 23:00:00 10.2 7 Oeste 18 Oeste 0 -- -- 68
2019-04-12 22:00:00 10.7 6 Oeste 15 Sudoeste 0 -- -- 65
2019-04-12 21:00:00 13 7 Oeste 17 Oeste 0 -- -- 50
2019-04-12 20:00:00 15.5 7 Norte 16 Noroeste 0 -- -- 40
2019-04-12 19:00:00 17.7 8 Norte 18 Nordeste 0 -- -- 33
2019-04-12 18:00:00 18.1 4 Norte 16 Nordeste 0 -- -- 33
2019-04-12 17:00:00 17.7 7 Nordeste 15 Nordeste 0 -- -- 33
2019-04-12 16:00:00 16.6 4 Norte 16 Norte 0 -- -- 34
2019-04-12 15:00:00 16 6 Norte 16 Nordeste 0 -- -- 36
2019-04-12 14:00:00 14.7 5 Noroeste 17 Sudeste 0 -- -- 39
2019-04-12 13:00:00 13.4 10 Sudeste 23 Sudeste 0 -- -- 49
2019-04-12 12:00:00 11.5 16 Sudeste 28 Sudeste 0 -- -- 56
2019-04-12 11:00:00 9.4 18 Sudeste 31 Sudeste 0 -- -- 69
2019-04-12 10:00:00 3.9 0 Calma 8 Sudoeste 0 -- -- 94
2019-04-12 09:00:00 -0.5 2 Oeste 7 Sudoeste 0 -- -- 94
2019-04-12 08:00:00 -1.8 3 Sudoeste 9 Sur 0 -- -- 94
2019-04-12 07:00:00 -1.7 4 Sudoeste 8 Sudoeste 0 -- -- 93
2019-04-12 06:00:00 -1.1 0 Calma 4 Noroeste 0 -- -- 92
2019-04-12 05:00:00 -0.5 0 Calma 7 Oeste 0 -- -- 90
2019-04-12 04:00:00 0.3 3 Sudoeste 5 Sur 0 -- -- 89
2019-04-12 03:00:00 1.6 3 Sur 8 Sudoeste 0 -- -- 87
2019-04-12 02:00:00 2.4 6 Sudoeste 13 Oeste 0 -- -- 84
2019-04-12 01:00:00 3.3 7 Sudoeste 11 Sudoeste 0 -- -- 80
2019-04-12 00:00:00 4.6 4 Oeste 10 Sudoeste 0 -- -- 76
2019-04-11 23:00:00 5.2 4 Nordeste 12 Noroeste 0 -- -- 72
2019-04-11 22:00:00 6.7 10 Norte 13 Norte 0 -- -- 66
2019-04-11 21:00:00 9.7 6 Norte 19 Norte 0 -- -- 52
2019-04-11 20:00:00 13.1 13 Norte 23 Noroeste 0 -- -- 43
2019-04-11 19:00:00 14.3 8 Norte 25 Norte 0 -- -- 38
2019-04-11 18:00:00 14.4 14 Nordeste 23 Noroeste 0 -- -- 40
2019-04-11 17:00:00 13.8 12 Norte 24 Norte 0 -- -- 40
2019-04-11 16:00:00 13.3 12 Noroeste 23 Norte 0 -- -- 44
2019-04-11 15:00:00 12.8 11 Noroeste 21 Norte 0 -- -- 49
2019-04-11 14:00:00 11.6 7 Norte 16 Nordeste 0 -- -- 60
2019-04-11 13:00:00 9.8 8 Nordeste 14 Nordeste 0 -- -- 84
2019-04-11 12:00:00 7.5 4 Nordeste 10 Nordeste 0 -- -- 94
2019-04-11 11:00:00 4.4 4 Nordeste 9 Nordeste 0 -- -- 94
2019-04-11 10:00:00 3.5 2 Oeste 8 Oeste 0 -- -- 95
2019-04-11 09:00:00 2.6 3 Oeste 7 Oeste 0 -- -- 95
2019-04-11 08:00:00 1.7 0 Calma 8 Oeste 0 -- -- 95
2019-04-11 07:00:00 2.5 3 Oeste 8 Noroeste 0 -- -- 94
2019-04-11 06:00:00 1.1 3 Noroeste 5 Sudoeste 0 -- -- 94
2019-04-11 05:00:00 0.2 4 Sudeste 5 Sudeste 0 -- -- 94
2019-04-11 04:00:00 1.4 3 Sudoeste 8 Oeste 0 -- -- 93
2019-04-11 03:00:00 1.6 3 Sudoeste 5 Oeste 0 -- -- 92
2019-04-11 02:00:00 2.8 3 Sudoeste 8 Sur 0 -- -- 91
2019-04-11 01:00:00 3.7 0 Calma 11 Noroeste 0 -- -- 90
2019-04-11 00:00:00 5.2 8 Norte 18 Norte 0 -- -- 89
2019-04-10 23:00:00 6.6 12 Norte 23 Norte 0 -- -- 86
2019-04-10 22:00:00 7 12 Noroeste 24 Norte 0 -- -- 84
2019-04-10 21:00:00 7.5 12 Norte 21 Norte 0 -- -- 82
2019-04-10 20:00:00 9.4 17 Norte 28 Noroeste 0 -- -- 81
2019-04-10 19:00:00 9.7 14 Norte 37 Norte 0.8 -- -- 80
2019-04-10 18:00:00 9.6 13 Norte 30 Norte 0 -- -- 78
2019-04-10 17:00:00 9.2 22 Norte 40 Noroeste 0.3 -- -- 73
2019-04-10 16:00:00 10.6 19 Noroeste 32 Noroeste 0 -- -- 65
2019-04-10 15:00:00 10 16 Noroeste 29 Oeste 0 -- -- 73
2019-04-10 14:00:00 9 13 Noroeste 31 Oeste 0 -- -- 79
2019-04-10 13:00:00 7.9 14 Noroeste 29 Oeste 0 -- -- 85
2019-04-10 12:00:00 7.3 14 Noroeste 27 Oeste 0 -- -- 85
2019-04-10 11:00:00 6.8 15 Noroeste 28 Oeste 0 -- -- 85
2019-04-10 10:00:00 6.2 12 Oeste 22 Oeste 0 -- -- 94
2019-04-10 09:00:00 5.1 5 Oeste 17 Sudoeste 0 -- -- 94
2019-04-10 08:00:00 4.4 6 Noroeste 15 Oeste 0 -- -- 94
2019-04-10 07:00:00 4.7 7 Oeste 12 Oeste 0.7 -- -- 94
2019-04-10 06:00:00 4.7 5 Oeste 19 Oeste 0.2 -- -- 93
2019-04-10 05:00:00 4.5 4 Oeste 12 Oeste 0.5 -- -- 93
2019-04-10 04:00:00 4.7 7 Oeste 17 Oeste 0.6 -- -- 93
2019-04-10 03:00:00 4.7 5 Sudoeste 19 Oeste 0.2 -- -- 93
2019-04-10 02:00:00 4.8 13 Oeste 28 Oeste 2.4 -- -- 93
2019-04-10 01:00:00 5.1 6 Noroeste 23 Oeste 3 -- -- 92
2019-04-10 00:00:00 5.2 12 Oeste 22 Oeste 0.2 -- -- 92
2019-04-09 23:00:00 4.7 6 Oeste 26 Oeste 0.6 -- -- 91
2019-04-09 22:00:00 5.2 15 Oeste 31 Noroeste 1 -- -- 91
2019-04-09 21:00:00 5.1 6 Oeste 28 Oeste 3 -- -- 90
2019-04-09 20:00:00 5.9 13 Oeste 30 Oeste 0.9 -- -- 88
2019-04-09 19:00:00 6.9 9 Sudoeste 41 Oeste 1.1 -- -- 84
2019-04-09 18:00:00 8.5 18 Oeste 32 Oeste 0.6 -- -- 78
2019-04-09 17:00:00 8.6 11 Sudoeste 46 Oeste 0 -- -- 79
2019-04-09 16:00:00 9.4 13 Sudoeste 30 Oeste 0.4 -- -- 76
2019-04-09 15:00:00 8.9 13 Oeste 26 Oeste 0 -- -- 77
2019-04-09 14:00:00 4.8 13 Oeste 39 Noroeste 1.3 -- -- 84
2019-04-09 13:00:00 7.7 10 Sudoeste 22 Noroeste 0.5 -- -- 81
2019-04-09 12:00:00 7.1 11 Oeste 24 Noroeste 0 -- -- 81
2019-04-09 11:00:00 6.1 7 Sudoeste 15 Oeste 0 -- -- 93
2019-04-09 10:00:00 4.5 6 Noroeste 14 Oeste 0 -- -- 93
2019-04-09 09:00:00 3.7 3 Oeste 19 Noroeste 1.4 -- -- 93
2019-04-09 08:00:00 3.9 6 Noroeste 21 Oeste 3.1 -- -- 93
2019-04-09 07:00:00 3.8 6 Sur 16 Sur 0.8 -- -- 93
2019-04-09 06:00:00 3.4 7 Sudeste 18 Sudeste 3.5 -- -- 93
2019-04-09 05:00:00 3.1 12 Sudeste 18 Sudeste 1.7 -- -- 93
2019-04-09 04:00:00 2.9 9 Sudeste 21 Sudeste 1.8 -- -- 92
2019-04-09 03:00:00 2.9 8 Sudeste 17 Sur 2.2 -- -- 91
2019-04-09 02:00:00 3.1 10 Sur 24 Sur 1.7 -- -- 89
2019-04-09 01:00:00 3.3 11 Sur 29 Sudoeste 1.9 -- -- 89
2019-04-09 00:00:00 4.6 14 Sudoeste 31 Sudoeste 3.4 -- -- 88
2019-04-08 23:00:00 4.6 4 Sudeste 18 Sudoeste 0 -- -- 86
2019-04-08 22:00:00 4.5 5 Sudeste 15 Sur 0 -- -- 82
2019-04-08 21:00:00 5.3 10 Sur 36 Sur 0.6 -- -- 75
2019-04-08 20:00:00 8.7 13 Sudoeste 36 Sudoeste 0 -- -- 55
2019-04-08 19:00:00 10.8 13 Sudoeste 31 Sudoeste 0 -- -- 49
2019-04-08 18:00:00 10.8 12 Oeste 34 Oeste 0 -- -- 49
2019-04-08 17:00:00 10.6 10 Sudoeste 33 Oeste 0 -- -- 57
2019-04-08 16:00:00 11.7 14 Sudoeste 29 Sudoeste 0 -- -- 53
2019-04-08 15:00:00 11.5 11 Sudoeste 32 Sudoeste 0 -- -- 53
2019-04-08 14:00:00 11.7 13 Sudoeste 28 Sudoeste 0 -- -- 57
2019-04-08 13:00:00 10.3 12 Sudoeste 27 Sudoeste 0 -- -- 61
2019-04-08 12:00:00 7.7 10 Sudoeste 25 Oeste 0 -- -- 84
2019-04-08 11:00:00 7 8 Sur 25 Sudoeste 0 -- -- 93
2019-04-08 10:00:00 5.7 5 Sudeste -- -- -- -- -- 94
2019-04-08 09:00:00 3.2 5 Sudeste 8 Sudeste 0 -- -- 94
2019-04-08 08:00:00 2.4 0 Calma 5 Sur 0 -- -- 94
2019-04-08 07:00:00 4.2 4 Sur 6 Sur 0 -- -- 94
2019-04-08 06:00:00 5.2 3 Noroeste 13 Oeste 0 -- -- 94
2019-04-08 05:00:00 5.9 4 Sudoeste 10 Sudoeste 0 -- -- 94
2019-04-08 04:00:00 6.6 6 Oeste 19 Oeste 0.1 -- -- 94
2019-04-08 03:00:00 6.9 5 Noroeste 17 Oeste 0.2 -- -- 94
2019-04-08 02:00:00 7.3 0 Calma 15 Noroeste 0 -- -- 94
2019-04-08 01:00:00 7.6 6 Noroeste 16 Noroeste 1.6 -- -- 94
2019-04-08 00:00:00 7.2 6 Sudeste 17 Sudeste 2.5 -- -- 94
2019-04-07 23:00:00 6.6 7 Sudeste 14 Sudeste 0.8 -- -- 94
2019-04-07 22:00:00 6.4 8 Sudeste 18 Este 0.4 -- -- 94
2019-04-07 21:00:00 5.9 10 Sudeste 31 Sudeste 1 -- -- 93
2019-04-07 20:00:00 5.9 17 Sudeste 29 Sudeste 0.8 -- -- 92
2019-04-07 19:00:00 6.6 20 Sudeste 33 Sudeste 0.1 -- -- 91
2019-04-07 18:00:00 6.1 15 Sudeste 32 Sudeste 0 -- -- 90
2019-04-07 17:00:00 6 17 Sudeste 32 Sudeste 0.3 -- -- 88
2019-04-07 16:00:00 5.3 14 Sur 24 Sur 1.5 -- -- 86
2019-04-07 15:00:00 5.6 10 Sur 25 Sur 1.2 -- -- 81
2019-04-07 14:00:00 7 15 Sudeste 25 Sur 0 -- -- 76
2019-04-07 13:00:00 7 13 Sur 20 Sudoeste 0 -- -- 74
2019-04-07 12:00:00 6.4 10 Sudeste 22 Sudeste 0.1 -- -- 86
2019-04-07 11:00:00 5.4 12 Sudeste 20 Sudeste 0 -- -- 94
2019-04-07 10:00:00 3.9 6 Sudeste 11 Sudeste 0 -- -- 95
2019-04-07 09:00:00 0.6 0 Calma 5 Sudeste 0 -- -- 95
2019-04-07 08:00:00 0.9 4 Sudeste 6 Sudeste 0 -- -- 94
2019-04-07 07:00:00 1.8 0 Calma 5 Sur 0 -- -- 94
2019-04-07 06:00:00 1.6 2 Sudoeste 7 Oeste 0 -- -- 95
2019-04-07 05:00:00 2.2 6 Oeste 13 Oeste 0 -- -- 94
2019-04-07 04:00:00 1.9 5 Oeste 22 Oeste 0 -- -- 94
2019-04-07 03:00:00 1.6 3 Oeste 10 Oeste 0 -- -- 94
2019-04-07 02:00:00 1.7 8 Oeste 15 Noroeste 1.4 -- -- 94
2019-04-07 01:00:00 1.6 5 Sudoeste 12 Oeste 0 -- -- 93
2019-04-07 00:00:00 1.7 6 Sudoeste 13 Sudoeste 0.6 -- -- 93
2019-04-06 23:00:00 1.6 2 Sudoeste 15 Oeste 0.6 -- -- 92
2019-04-06 22:00:00 1.8 7 Oeste 29 Oeste 1.2 -- -- 90
2019-04-06 21:00:00 2.6 12 Oeste 23 Noroeste 0.1 -- -- 88
2019-04-06 20:00:00 2.9 10 Oeste 37 Oeste 1.5 -- -- 84
2019-04-06 19:00:00 4.9 11 Oeste 41 Oeste 0.1 -- -- 77
2019-04-06 18:00:00 5.9 15 Oeste 36 Oeste 0 -- -- 75
2019-04-06 17:00:00 6.9 18 Oeste 34 Oeste 0.1 -- -- 73
2019-04-06 16:00:00 4.5 18 Oeste 37 Noroeste 0.1 -- -- 91
2019-04-06 15:00:00 3.3 19 Oeste 40 Oeste 0.8 -- -- 94
2019-04-06 14:00:00 2.7 24 Oeste 47 Oeste 1.3 -- -- 95
2019-04-06 13:00:00 2.8 14 Oeste 32 Sudoeste 2.7 -- -- 95
2019-04-06 12:00:00 2.8 9 Sudoeste 23 Oeste 0.7 -- -- 95
2019-04-06 11:00:00 1.5 9 Noroeste 21 Noroeste 3.1 -- -- 95
2019-04-06 10:00:00 0.7 5 Sudoeste 13 Sudeste 1 -- -- 95
2019-04-06 09:00:00 0 8 Sur 17 Sur 1.5 -- -- 95
2019-04-06 08:00:00 -0.9 10 Sudeste 21 Sudeste 1.4 -- -- 95
2019-04-06 07:00:00 -1.1 13 Sudeste 24 Sudeste 4.9 -- -- 94
2019-04-06 06:00:00 -0.3 3 Sudeste 11 Sudeste 0.4 -- -- 94
2019-04-06 05:00:00 -1 7 Sudeste 11 Sudeste 2.5 -- -- 94
2019-04-06 04:00:00 0 2 Sur 22 Sudoeste 3.6 -- -- 93
2019-04-06 03:00:00 0.8 9 Sudeste 16 Sudeste 0.6 -- -- 93
2019-04-06 02:00:00 0.7 3 Este 24 Sur 2.3 -- -- 92
2019-04-06 01:00:00 2.6 6 Sudoeste 13 Sudoeste 0.1 -- -- 92
2019-04-06 00:00:00 2.1 3 Sur 15 Sudoeste 0 -- -- 91
2019-04-05 23:00:00 2.2 4 Sudoeste 17 Sudoeste 0.1 -- -- 89
2019-04-05 22:00:00 1.9 6 Sudoeste 15 Oeste 0 -- -- 88
2019-04-05 21:00:00 2.6 6 Sudoeste 24 Sudoeste 0 -- -- 86
2019-04-05 20:00:00 3.9 10 Sudoeste 24 Sudoeste 0 -- -- 79
2019-04-05 19:00:00 5.2 10 Oeste 27 Sudoeste 0 -- -- 78
2019-04-05 18:00:00 5.1 12 Oeste 27 Sudoeste 0.1 -- -- 81
2019-04-05 17:00:00 5.7 12 Oeste 26 Oeste 0.1 -- -- 84
2019-04-05 16:00:00 4.6 13 Oeste 33 Oeste 0.1 -- -- 80
2019-04-05 15:00:00 4.9 21 Oeste 38 Oeste 0 -- -- 69
2019-04-05 14:00:00 6.1 10 Sudoeste 31 Norte 0.1 -- -- 72
2019-04-05 13:00:00 7.1 11 Sudoeste 24 Sudoeste 0 -- -- 64
2019-04-05 12:00:00 4.9 7 Sur 22 Sur 0 -- -- 76
2019-04-05 11:00:00 3.2 13 Sur 21 Sur 0 -- -- 89
2019-04-05 10:00:00 2.6 3 Sur 8 Sudeste 0 -- -- 94
2019-04-05 09:00:00 -0.2 4 Noroeste 19 Sudoeste 0 -- -- 94
2019-04-05 08:00:00 -0.3 8 Sudoeste 23 Sur 0 -- -- 94
2019-04-05 07:00:00 0.7 5 Sudoeste 17 Oeste 0 -- -- 95
2019-04-05 06:00:00 1.4 9 Oeste 21 Oeste 0 -- -- 94
2019-04-05 05:00:00 1.4 0 Calma 13 Sudoeste 0 -- -- 94
2019-04-05 04:00:00 1.6 5 Sudoeste 15 Sudoeste 0.9 -- -- 94
2019-04-05 03:00:00 1.5 3 Oeste 7 Oeste 0.2 -- -- 94
2019-04-05 02:00:00 2 0 Calma 13 Noroeste 0.5 -- -- 93
2019-04-05 01:00:00 2.4 3 Sudoeste 11 Sudeste 1.5 -- -- 92
2019-04-05 00:00:00 2.6 5 Este 21 Sur 1.8 -- -- 91
2019-04-04 23:00:00 3.1 10 Sur 27 Sudeste 4.5 -- -- 90
2019-04-04 22:00:00 3.4 13 Sudeste 23 Sudeste 1.6 -- -- 84
2019-04-04 21:00:00 4.4 13 Sudeste 27 Sur 0 -- -- 75
2019-04-04 20:00:00 4.8 15 Sur 29 Sur 0 -- -- 73
2019-04-04 19:00:00 5.1 13 Sur 29 Sur 0 -- -- 78
2019-04-04 18:00:00 4.8 8 Sudoeste 25 Sudoeste 0.1 -- -- 82
2019-04-04 17:00:00 5.2 6 Sudoeste 21 Sur 0 -- -- 78
2019-04-04 16:00:00 5.5 13 Sudoeste 29 Sudoeste 0.1 -- -- 72
2019-04-04 15:00:00 6.6 10 Oeste 25 Sudoeste 0 -- -- 61
2019-04-04 14:00:00 7.4 13 Sudoeste 26 Oeste 0 -- -- 57
2019-04-04 13:00:00 6.1 17 Sudoeste 27 Sudoeste 0 -- -- 67
2019-04-04 12:00:00 5.4 10 Sudoeste 21 Oeste 0 -- -- 71
2019-04-04 11:00:00 3.5 6 Sudoeste 12 Sur 0 -- -- 86
2019-04-04 10:00:00 1.6 6 Sudoeste 11 Sudoeste 0 -- -- 89
2019-04-04 09:00:00 0.1 0 Calma 5 Sur 0 -- -- 89
2019-04-04 08:00:00 -0.5 0 Calma 6 Sudoeste 0 -- -- 89
2019-04-04 07:00:00 0.2 0 Calma 9 Oeste 0 -- -- 88
2019-04-04 06:00:00 0.5 4 Noroeste 14 Oeste 0 -- -- 88
2019-04-04 05:00:00 0.8 6 Oeste 14 Noroeste 0 -- -- 89
2019-04-04 04:00:00 0.9 8 Oeste 13 Oeste 0 -- -- 89
2019-04-04 03:00:00 0.1 0 Calma 8 Oeste 0 -- -- 88
2019-04-04 02:00:00 0.8 4 Oeste 13 Oeste 0 -- -- 86
2019-04-04 01:00:00 0 6 Oeste 14 Noroeste 0 -- -- 82
2019-04-04 00:00:00 1 10 Noroeste 23 Noroeste 0 -- -- 79
2019-04-03 23:00:00 1.7 7 Oeste 18 Norte 0 -- -- 73
2019-04-03 22:00:00 2.2 14 Norte 31 Norte 0 -- -- 69
2019-04-03 21:00:00 4 17 Norte 33 Noroeste 0 -- -- 60
2019-04-03 20:00:00 5.8 22 Noroeste 41 Norte 0 -- -- 49
2019-04-03 19:00:00 5.8 21 Noroeste 37 Noroeste 0 -- -- 52
2019-04-03 18:00:00 6 24 Noroeste 44 Norte 0 -- -- 51
2019-04-03 17:00:00 6.8 17 Noroeste 37 Noroeste 0.1 -- -- 56
2019-04-03 16:00:00 7.9 21 Noroeste 37 Noroeste 0 -- -- 66
2019-04-03 15:00:00 5.6 12 Norte 48 Norte 0.5 -- -- 89
2019-04-03 14:00:00 6.2 23 Noroeste 39 Noroeste 0 -- -- 62
2019-04-03 13:00:00 7.3 23 Norte 35 Noroeste 0 -- -- 59
2019-04-03 12:00:00 5.7 18 Noroeste 44 Norte 0 -- -- 68
2019-04-03 11:00:00 3.7 22 Noroeste 32 Noroeste 0 -- -- 80
2019-04-03 10:00:00 3.9 20 Noroeste 31 Noroeste 0 -- -- 84
2019-04-03 09:00:00 2.2 12 Noroeste 26 Noroeste 0 -- -- 92
2019-04-03 08:00:00 1.6 9 Noroeste 18 Noroeste 0 -- -- 92
2019-04-03 07:00:00 2 11 Noroeste 21 Norte 0 -- -- 92
2019-04-03 06:00:00 2.6 10 Noroeste 19 Noroeste 0 -- -- 90
2019-04-03 05:00:00 3 11 Noroeste 21 Noroeste 0 -- -- 87
2019-04-03 04:00:00 3.7 10 Norte 19 Norte 0 -- -- 84
2019-04-03 03:00:00 3.9 10 Norte 23 Norte 0 -- -- 82
2019-04-03 02:00:00 4.1 15 Norte 32 Norte 0 -- -- 80
2019-04-03 01:00:00 4.3 9 Noroeste 22 Noroeste 0 -- -- 76
2019-04-03 00:00:00 4.7 9 Noroeste 21 Norte 0 -- -- 73
2019-04-02 23:00:00 5.5 12 Noroeste 24 Norte 0 -- -- 71
2019-04-02 22:00:00 6.8 12 Norte 32 Noroeste 0 -- -- 69
2019-04-02 21:00:00 9 17 Norte 30 Norte 0 -- -- 62
2019-04-02 20:00:00 12.4 12 Noroeste 28 Noroeste 0 -- -- 51
2019-04-02 19:00:00 13.7 17 Noroeste 32 Noroeste 0 -- -- 45
2019-04-02 18:00:00 15.2 14 Noroeste 32 Norte 0 -- -- 41
2019-04-02 17:00:00 15 15 Noroeste 25 Noroeste 0 -- -- 44
2019-04-02 16:00:00 13.8 13 Norte 26 Norte 0 -- -- 50
2019-04-02 15:00:00 12.7 7 Norte 19 Norte 0 -- -- 57
2019-04-02 14:00:00 10.2 8 Norte 17 Norte 0 -- -- 73
2019-04-02 13:00:00 6.5 12 Noroeste 21 Noroeste 0 -- -- 91
2019-04-02 12:00:00 5.1 13 Norte 22 Noroeste 0 -- -- 96
2019-04-02 11:00:00 3.9 8 Norte 18 Norte 0 -- -- 96
2019-04-02 10:00:00 1.6 0 Calma 5 Sudeste 0 -- -- 96
2019-04-02 09:00:00 -2.6 0 Calma 4 Noroeste 0 -- -- 96
2019-04-02 08:00:00 -2.7 0 Calma 8 Sur 0 -- -- 96
2019-04-02 07:00:00 -1.4 3 Sur 6 Sur 0 -- -- 95
2019-04-02 06:00:00 -1.3 0 Calma 4 Sur 0 -- -- 94
2019-04-02 05:00:00 -0.7 0 Calma 7 Norte 0 -- -- 94
2019-04-02 04:00:00 0.9 0 Calma 4 Sudoeste 0 -- -- 92
2019-04-02 03:00:00 2.5 2 Sur 5 Oeste 0 -- -- 91
2019-04-02 02:00:00 3.7 0 Calma 7 Oeste 0 -- -- 89
2019-04-02 01:00:00 4.8 3 Sudoeste 9 Oeste 0 -- -- 84
2019-04-02 00:00:00 6.3 6 Sur 8 Sur 0.1 -- -- 77
2019-04-01 23:00:00 8.1 0 Calma 13 Oeste 0 -- -- 68
2019-04-01 22:00:00 9.7 6 Oeste 15 Oeste 0 -- -- 65
2019-04-01 21:00:00 10.4 6 Noroeste 20 Oeste 0 -- -- 68
2019-04-01 20:00:00 10.8 9 Oeste 25 Oeste 0 -- -- 65
2019-04-01 19:00:00 11.3 8 Sudoeste 21 Sudoeste 0.1 -- -- 68
2019-04-01 18:00:00 11.6 10 Oeste 25 Oeste 0.5 -- -- 60
2019-04-01 17:00:00 14.9 9 Sudoeste 27 Oeste 0 -- -- 46
2019-04-01 16:00:00 15.3 7 Sudoeste 31 Norte 0 -- -- 39
2019-04-01 15:00:00 19.2 5 Nordeste 17 Nordeste 0 -- -- 33
2019-04-01 14:00:00 17.6 9 Sudeste 23 Sudeste 0 -- -- 39
2019-04-01 13:00:00 16.2 13 Sudeste 26 Este 0 -- -- 44
2019-04-01 12:00:00 14.6 15 Sudeste 28 Sudeste 0 -- -- 47
2019-04-01 11:00:00 12.4 12 Sudeste 25 Sudeste 0 -- -- 57
2019-04-01 10:00:00 9 5 Sudeste 13 Sudeste 0 -- -- 88
2019-04-01 09:00:00 3.6 3 Noroeste 6 Oeste 0 -- -- 93
2019-04-01 08:00:00 1.2 4 Norte -- -- -- -- -- 93
2019-04-01 07:00:00 0 2 Norte 6 Oeste 0 -- -- 92
2019-04-01 06:00:00 0.6 3 Oeste 9 Oeste 0 -- -- 91
2019-04-01 05:00:00 0.3 3 Sudoeste 6 Sudoeste 0 -- -- 89
2019-04-01 04:00:00 1.5 2 Sudoeste 6 Sudoeste 0 -- -- 86
2019-04-01 03:00:00 2.5 0 Calma 4 Noroeste 0 -- -- 79
2019-04-01 02:00:00 5.7 5 Sudeste 13 Sur 0 -- -- 73
2019-04-01 01:00:00 6.2 6 Sudoeste 9 Oeste 0 -- -- 69
2019-04-01 00:00:00 7.7 4 Oeste 10 Oeste 0 -- -- 61
2019-03-31 23:00:00 9.6 2 Noroeste 18 Norte 0 -- -- 53
2019-03-31 22:00:00 11.6 9 Noroeste 19 Norte 0 -- -- 45
2019-03-31 21:00:00 13.5 9 Oeste 20 Oeste 0 -- -- 39
2019-03-31 20:00:00 16.6 11 Noroeste 21 Nordeste 0 -- -- 34
2019-03-31 19:00:00 17.7 8 Norte 12 Sudoeste 0 -- -- 31
2019-03-31 18:00:00 19.2 5 Sur 14 Sudeste 0 -- -- 30
2019-03-31 17:00:00 18.2 7 Este 23 Nordeste 0 -- -- 33
2019-03-31 16:00:00 16.6 17 Nordeste 32 Nordeste 0 -- -- 37
2019-03-31 15:00:00 15.2 17 Nordeste 33 Nordeste 0 -- -- 41
2019-03-31 14:00:00 17 7 Norte 13 Este 0 -- -- 36
2019-03-31 13:00:00 16.6 3 Sudoeste 13 Sur 0 -- -- 38
2019-03-31 12:00:00 0 -- -- -- -- -- -- -- 0
2019-03-31 11:00:00 11.3 0 Calma 5 Oeste 0 -- -- 62
2019-03-31 10:00:00 6.9 0 Calma 5 Nordeste 0 -- -- 84
2019-03-31 09:00:00 2.4 0 Calma 4 Sudoeste 0 -- -- 92
2019-03-31 08:00:00 0.3 3 Sur 4 Sur 0 -- -- 92
2019-03-31 07:00:00 -0.7 0 Calma 3 Nordeste 0 -- -- 89
2019-03-31 06:00:00 -0.7 0 Calma 6 Sudoeste 0 -- -- 86
2019-03-31 05:00:00 0.3 2 Sudoeste 5 Noroeste 0 -- -- 81
2019-03-31 03:00:00 3 5 Sudoeste 7 Sudoeste 0 -- -- 68
2019-03-31 01:00:00 4.9 4 Sudoeste 8 Sudoeste 0 -- -- 59
2019-03-31 00:00:00 6.8 4 Sudoeste 7 Sudoeste 0 -- -- 54
2019-03-30 23:00:00 7.9 3 Noroeste 8 Noroeste 0 -- -- 47
2019-03-30 22:00:00 10.1 2 Sudoeste 13 Noroeste 0 -- -- 39
2019-03-30 21:00:00 12.6 8 Noroeste 23 Noroeste 0 -- -- 35
2019-03-30 20:00:00 14.3 15 Noroeste 27 Noroeste 0 -- -- 34
2019-03-30 19:00:00 16.5 7 Nordeste 12 Nordeste 0 -- -- 33
2019-03-30 18:00:00 17.5 4 Oeste 8 Oeste 0 -- -- 31
2019-03-30 17:00:00 17.5 5 Oeste 15 Oeste 0 -- -- 31
2019-03-30 16:00:00 17.5 5 Oeste 13 Noroeste 0 -- -- 31
2019-03-30 15:00:00 16.7 6 Noroeste 12 Oeste 0 -- -- 32
2019-03-30 14:00:00 16.5 5 Oeste 9 Oeste 0 -- -- 31
2019-03-30 13:00:00 17.1 0 Calma 13 Sudoeste 0 -- -- 29
2019-03-30 12:00:00 17.5 3 Nordeste 11 Nordeste 0 -- -- 31
2019-03-30 11:00:00 14 0 Calma 5 Sur 0 -- -- 53
2019-03-30 10:00:00 7.4 2 Oeste 6 Sudoeste 0 -- -- 76
2019-03-30 09:00:00 2.5 2 Sudoeste 5 Sudoeste 0 -- -- 91
2019-03-30 08:00:00 -1.4 4 Sudoeste 7 Sudoeste 0 -- -- 91
2019-03-30 07:00:00 -1.4 3 Sudoeste 7 Sudoeste 0 -- -- 91
2019-03-30 06:00:00 -1.3 4 Sudoeste 7 Sudoeste 0 -- -- 90
2019-03-30 05:00:00 -1.3 0 Calma 5 Oeste 0 -- -- 89
2019-03-30 04:00:00 -0.7 0 Calma 2 Noroeste 0 -- -- 86
2019-03-30 03:00:00 -0.1 0 Calma 7 Sur 0 -- -- 79
2019-03-30 02:00:00 3.1 7 Sur 9 Sudoeste 0 -- -- 76
2019-03-30 01:00:00 3.6 2 Sudoeste 9 Sudoeste 0 -- -- 73
2019-03-30 00:00:00 5.1 5 Sudoeste 7 Sudoeste 0 -- -- 68
2019-03-29 23:00:00 6.3 0 Calma 5 Norte 0 -- -- 57
2019-03-29 22:00:00 9.5 3 Sudoeste 5 Oeste 0 -- -- 45
2019-03-29 21:00:00 12.1 0 Calma 12 Oeste 0 -- -- 38
2019-03-29 20:00:00 14.4 6 Oeste 24 Oeste 0 -- -- 34
2019-03-29 19:00:00 16.5 15 Oeste 25 Oeste 0 -- -- 33
2019-03-29 18:00:00 18.4 6 Oeste 22 Norte 0 -- -- 31
2019-03-29 17:00:00 20.4 4 Noroeste 17 Oeste 0 -- -- 30
2019-03-29 16:00:00 20.9 7 Oeste 21 Oeste 0 -- -- 30
2019-03-29 15:00:00 19.7 6 Sudoeste 17 Sudoeste 0 -- -- 30
2019-03-29 14:00:00 19.7 6 Sudeste 22 Este 0 -- -- 33
2019-03-29 13:00:00 18.7 10 Sudeste 23 Este 0 -- -- 33
2019-03-29 12:00:00 16.9 14 Sudeste 29 Sudeste 0 -- -- 36
2019-03-29 11:00:00 15 16 Sudeste 29 Sudeste 0 -- -- 39
2019-03-29 10:00:00 10.6 4 Sudeste 18 Este 0 -- -- 66
2019-03-29 09:00:00 3.5 4 Oeste 9 Sudoeste 0 -- -- 85
2019-03-29 08:00:00 -1.1 0 Calma 9 Oeste 0 -- -- 89
2019-03-29 07:00:00 -1.8 2 Oeste 9 Sudoeste 0 -- -- 89
2019-03-29 06:00:00 -1 2 Sudoeste 9 Nordeste 0 -- -- 88
2019-03-29 05:00:00 -1.5 6 Nordeste 8 Nordeste 0 -- -- 88
2019-03-29 04:00:00 -0.4 0 Calma 6 Sudoeste 0 -- -- 84
2019-03-29 03:00:00 0.6 0 Calma 9 Sur 0 -- -- 78
2019-03-29 02:00:00 1 0 Calma 8 Sudoeste 0 -- -- 74
2019-03-29 01:00:00 2.3 4 Sudoeste 9 Sur 0 -- -- 70
2019-03-29 00:00:00 3.5 3 Sudoeste 9 Oeste 0 -- -- 65
2019-03-28 23:00:00 5.1 4 Sudoeste 7 Sudoeste 0 -- -- 60
2019-03-28 22:00:00 6.3 0 Calma 6 Sudoeste 0 -- -- 50
2019-03-28 21:00:00 9.1 2 Este 8 Este 0 -- -- 39
2019-03-28 20:00:00 15.8 0 Calma 12 Sur 0 -- -- 25
2019-03-28 19:00:00 20.3 5 Sur 13 Sudeste 0 -- -- 22
2019-03-28 18:00:00 20.6 10 Sur 19 Sur 0 -- -- 22
2019-03-28 17:00:00 21.3 3 Oeste 20 Sudeste 0 -- -- 23
2019-03-28 16:00:00 20.3 3 Nordeste 19 Sur 0 -- -- 24
2019-03-28 15:00:00 19.5 7 Sudeste 21 Sudeste 0 -- -- 25
2019-03-28 14:00:00 18.4 13 Sur 24 Sur 0 -- -- 27
2019-03-28 13:00:00 17.1 13 Sudeste 22 Sur 0 -- -- 28
2019-03-28 12:00:00 16.2 7 Sudeste 20 Sudeste 0 -- -- 29
2019-03-28 11:00:00 13.4 12 Sudeste 23 Sudeste 0 -- -- 31
2019-03-28 10:00:00 11.2 12 Sudeste 22 Sudeste 0 -- -- 33
2019-03-28 09:00:00 5.5 7 Este 13 Este 0 -- -- 68
2019-03-28 08:00:00 -0.6 0 Calma 10 Sudeste 0 -- -- 71
2019-03-28 07:00:00 0 7 Este 11 Este 0 -- -- 67
2019-03-28 06:00:00 2.1 6 Este 16 Este 0 -- -- 71
2019-03-28 05:00:00 -1.9 2 Noroeste 7 Oeste 0 -- -- 91
2019-03-28 04:00:00 -2.3 0 Calma 6 Sur 0 -- -- 89
2019-03-28 03:00:00 -1.1 0 Calma 4 Sudoeste 0 -- -- 88
2019-03-28 02:00:00 0.6 2 Sur 4 Nordeste 0 -- -- 86
2019-03-28 01:00:00 1.1 0 Calma 3 Nordeste 0 -- -- 81
2019-03-28 00:00:00 2.6 0 Calma 6 Sudoeste 0 -- -- 74
2019-03-27 23:00:00 5 0 Calma 6 Oeste 0 -- -- 65
2019-03-27 22:00:00 7.8 3 Sudoeste 8 Oeste 0 -- -- 56
2019-03-27 21:00:00 10.5 7 Norte 14 Norte 0 -- -- 45
2019-03-27 20:00:00 13.7 8 Norte 18 Norte 0 -- -- 35
2019-03-27 19:00:00 18.4 13 Norte 21 Norte 0 -- -- 26
2019-03-27 18:00:00 21.5 2 Oeste 10 Sur 0 -- -- 21
2019-03-27 17:00:00 20.9 4 Este 11 Este 0 -- -- 21
2019-03-27 16:00:00 20.1 7 Norte 15 Noroeste 0 -- -- 21
2019-03-27 15:00:00 20 10 Este 19 Sudeste 0 -- -- 22
2019-03-27 14:00:00 18.9 12 Sudeste 27 Sur 0 -- -- 22
2019-03-27 13:00:00 17.7 11 Sudeste 31 Sudeste 0 -- -- 23
2019-03-27 12:00:00 15.8 18 Sudeste 37 Sur 0 -- -- 23
2019-03-27 11:00:00 14.4 19 Sudeste 32 Sudeste 0 -- -- 24
2019-03-27 10:00:00 12.7 19 Sudeste 34 Sudeste 0 -- -- 26
2019-03-27 09:00:00 8.6 9 Este 14 Este 0 -- -- 31
2019-03-27 08:00:00 4 9 Sudeste 17 Sudeste 0 -- -- 32
2019-03-27 07:00:00 2.4 11 Sudeste 16 Sudeste 0 -- -- 33
2019-03-27 06:00:00 4.2 9 Este 22 Sudeste 0 -- -- 29
2019-03-27 05:00:00 5.6 10 Sudeste 23 Sudeste 0 -- -- 29
2019-03-27 04:00:00 1.9 8 Este 22 Sudeste 0 -- -- 33
2019-03-27 03:00:00 6.5 14 Sudeste 22 Sudeste 0 -- -- 30
2019-03-27 02:00:00 2.4 4 Norte 15 Sudeste 0 -- -- 39
2019-03-27 01:00:00 2.7 4 Sudeste 9 Sudoeste 0 -- -- 38
2019-03-27 00:00:00 5 6 Sudeste 13 Sur 0 -- -- 35
2019-03-26 23:00:00 8.2 4 Oeste 10 Oeste 0 -- -- 27
2019-03-26 22:00:00 9.5 5 Oeste 23 Este 0 -- -- 25
2019-03-26 21:00:00 12.5 15 Sudeste 26 Sudeste 0 -- -- 22
2019-03-26 20:00:00 14.7 17 Sudeste 31 Sudeste 0 -- -- 21
2019-03-26 19:00:00 18.2 16 Sudeste 31 Sudeste 0 -- -- 20
2019-03-26 18:00:00 20.1 15 Sudeste 32 Sudeste 0 -- -- 19
2019-03-26 17:00:00 19.9 21 Sudeste 40 Sudeste 0 -- -- 19
2019-03-26 16:00:00 20 18 Sudeste 41 Sudeste 0 -- -- 20
2019-03-26 15:00:00 19.2 23 Sudeste 43 Sudeste 0 -- -- 22
2019-03-26 14:00:00 18.4 17 Sudeste 39 Sudeste 0 -- -- 25
2019-03-26 13:00:00 16.7 18 Sudeste 32 Sur 0 -- -- 29
2019-03-26 12:00:00 14.8 15 Sudeste 34 Sudeste 0 -- -- 33
2019-03-26 11:00:00 11.6 19 Sudeste 34 Sudeste 0 -- -- 42
2019-03-26 10:00:00 8.6 18 Sudeste 32 Sudeste 0 -- -- 52
2019-03-26 09:00:00 5.6 10 Sudeste 28 Sudeste 0 -- -- 61
2019-03-26 08:00:00 2.5 7 Este 29 Sudeste 0 -- -- 61
2019-03-26 07:00:00 3.3 20 Sudeste 31 Sudeste 0 -- -- 56
2019-03-26 06:00:00 2.7 12 Sudeste 23 Sudeste 0 -- -- 65
2019-03-26 05:00:00 -1.2 3 Sudeste 10 Sudeste 0 -- -- 72
2019-03-26 04:00:00 0.2 5 Nordeste 10 Nordeste 0 -- -- 68
2019-03-26 03:00:00 2.5 5 Nordeste 12 Nordeste 0 -- -- 52
2019-03-26 02:00:00 5.5 5 Nordeste 21 Sudeste 0 -- -- 41
2019-03-26 01:00:00 5.7 0 Calma 12 Norte 0 -- -- 47
2019-03-26 00:00:00 7.4 6 Nordeste 22 Sudeste 0 -- -- 43
2019-03-25 23:00:00 9.9 10 Sudeste 19 Sur 0 -- -- 43
2019-03-25 22:00:00 11.5 12 Sudeste 21 Sudeste 0 -- -- 48
2019-03-25 21:00:00 10.5 0 Calma 10 Sur 0 -- -- 62
2019-03-25 20:00:00 13.4 0 Calma 18 Norte 0 -- -- 52
2019-03-25 19:00:00 17.1 14 Norte 20 Norte 0 -- -- 36
2019-03-25 18:00:00 19.5 14 Norte 23 Noroeste 0 -- -- 31
2019-03-25 17:00:00 19.9 15 Norte 25 Noroeste 0 -- -- 34
2019-03-25 16:00:00 19.9 16 Norte 25 Nordeste 0 -- -- 33
2019-03-25 15:00:00 19.7 11 Norte 24 Norte 0 -- -- 35
2019-03-25 14:00:00 19.4 8 Nordeste 16 Este 0 -- -- 32
2019-03-25 13:00:00 18.7 9 Sudeste 19 Sudeste 0 -- -- 34
2019-03-25 12:00:00 17.2 11 Sudeste 21 Sudeste 0 -- -- 36
2019-03-25 11:00:00 13.3 8 Nordeste 13 Nordeste 0 -- -- 66
2019-03-25 10:00:00 6.9 0 Calma 4 Sur 0 -- -- 95
2019-03-25 09:00:00 1.7 0 Calma 0 Calma 0 -- -- 95
2019-03-25 08:00:00 -1.7 0 Calma 4 Sudoeste 0 -- -- 95
2019-03-25 07:00:00 -1.5 0 Calma 4 Este 0 -- -- 94
2019-03-25 06:00:00 -0.8 0 Calma 4 Oeste 0 -- -- 94
2019-03-25 05:00:00 -0.2 0 Calma 6 Oeste 0 -- -- 93
2019-03-25 04:00:00 0.6 0 Calma 5 Noroeste 0 -- -- 92
2019-03-25 03:00:00 1.9 3 Sudoeste 5 Sudoeste 0 -- -- 91
2019-03-25 02:00:00 1.7 0 Calma 9 Este 0 -- -- 88
2019-03-25 01:00:00 5.1 5 Este 9 Este 0 -- -- 86
2019-03-25 00:00:00 6 5 Este 8 Sudeste 0 -- -- 82